Time;durP1;ratioP1;P1;durP2;ratioP2;P2;SDS_P1;SDS_P2;PMS_P1;PMS_P2;Temp;Humidity;BMP_temperature;BMP_pressure;BME280_temperature;BME280_humidity;BME280_pressure;Samples;Min_cycle;Max_cycle;Signal;HPM_P1;HPM_P2
2022/03/21 00:01:00;;;;;;;51.47;39.22;;;;;;;;;;5016719;28;20038;-86
2022/03/21 00:03:29;;;;;;;50.05;34.67;;;;;;;;;;5017453;28;20043;-86
2022/03/21 00:05:56;;;;;;;57.45;39.50;;;;;;;;;;5033624;28;20041;-86
2022/03/21 00:08:22;;;;;;;55.35;38.17;;;;;;;;;;5033566;28;20039;-85
2022/03/21 00:10:49;;;;;;;50.75;35.45;;;;;;;;;;5017537;28;20045;-86
2022/03/21 00:13:15;;;;;;;47.95;32.00;;;;;;;;;;5035325;28;20053;-86
2022/03/21 00:15:46;;;;;;;46.78;31.73;;;;;;;;;;5034146;28;20042;-86
2022/03/21 00:18:16;;;;;;;52.05;34.95;;;;;;;;;;5034103;28;20041;-86
2022/03/21 00:20:42;;;;;;;49.17;32.25;;;;;;;;;;5017692;28;20133;-87
2022/03/21 00:23:09;;;;;;;51.80;34.97;;;;;;;;;;5017691;28;20049;-86
2022/03/21 00:25:35;;;;;;;45.47;31.80;;;;;;;;;;5033659;28;20501;-87
2022/03/21 00:28:02;;;;;;;43.60;30.35;;;;;;;;;;5033927;28;20045;-87
2022/03/21 00:30:29;;;;;;;42.20;30.25;;;;;;;;;;5034171;28;20098;-86
2022/03/21 00:32:55;;;;;;;40.17;29.83;;;;;;;;;;5034074;28;20512;-86
2022/03/21 00:35:21;;;;;;;42.17;28.73;;;;;;;;;;5033740;28;20033;-86
2022/03/21 00:37:47;;;;;;;42.03;28.27;;;;;;;;;;5017150;28;20045;-86
2022/03/21 00:40:15;;;;;;;41.72;29.33;;;;;;;;;;5033854;28;20052;-87
2022/03/21 00:42:42;;;;;;;42.83;27.85;;;;;;;;;;5017106;28;20048;-86
2022/03/21 00:45:10;;;;;;;41.92;29.67;;;;;;;;;;5017050;28;20080;-87
2022/03/21 00:47:37;;;;;;;35.90;26.15;;;;;;;;;;5016870;28;20048;-87
2022/03/21 00:50:07;;;;;;;39.40;26.33;;;;;;;;;;5017049;28;20041;-86
2022/03/21 00:53:05;;;;;;;40.97;28.25;;;;;;;;;;5033595;28;20037;-86
2022/03/21 00:55:31;;;;;;;34.65;24.67;;;;;;;;;;5022278;28;20107;-86
2022/03/21 00:57:58;;;;;;;33.88;24.20;;;;;;;;;;5016771;28;20444;-86
2022/03/21 01:00:25;;;;;;;37.65;25.27;;;;;;;;;;5016989;28;20046;-86
2022/03/21 01:02:51;;;;;;;38.63;25.95;;;;;;;;;;5032595;28;20037;-86
2022/03/21 01:05:17;;;;;;;35.90;23.27;;;;;;;;;;5016671;28;20404;-86
2022/03/21 01:07:43;;;;;;;33.72;23.20;;;;;;;;;;5016516;28;20033;-87
2022/03/21 01:10:11;;;;;;;33.13;22.17;;;;;;;;;;5016752;28;20090;-87
2022/03/21 01:12:37;;;;;;;37.15;23.67;;;;;;;;;;5033084;28;20037;-86
2022/03/21 01:15:04;;;;;;;33.47;22.75;;;;;;;;;;5016498;28;20061;-86
2022/03/21 01:17:30;;;;;;;31.50;21.27;;;;;;;;;;5032930;28;20037;-86
2022/03/21 01:19:56;;;;;;;34.72;21.80;;;;;;;;;;5033034;28;20095;-86
2022/03/21 01:22:22;;;;;;;31.75;21.63;;;;;;;;;;5016224;28;20042;-86
2022/03/21 01:24:48;;;;;;;32.35;21.02;;;;;;;;;;5015986;28;20050;-86
2022/03/21 01:27:14;;;;;;;33.15;21.73;;;;;;;;;;5016287;28;20072;-86
2022/03/21 01:29:40;;;;;;;28.98;19.30;;;;;;;;;;5015877;28;20045;-86
2022/03/21 01:32:07;;;;;;;30.10;19.55;;;;;;;;;;5032591;28;20117;-87
2022/03/21 01:34:33;;;;;;;29.20;19.45;;;;;;;;;;5032445;28;20037;-86
2022/03/21 01:36:59;;;;;;;29.90;20.27;;;;;;;;;;5015960;28;20041;-87
2022/03/21 01:39:25;;;;;;;29.77;18.63;;;;;;;;;;5032247;28;20045;-86
2022/03/21 01:41:51;;;;;;;27.00;18.10;;;;;;;;;;5015558;28;20041;-86
2022/03/21 01:44:18;;;;;;;27.77;18.95;;;;;;;;;;5032256;28;20382;-86
2022/03/21 01:46:47;;;;;;;28.02;18.65;;;;;;;;;;5015817;28;20091;-86
2022/03/21 01:49:13;;;;;;;27.40;18.40;;;;;;;;;;5032042;28;20045;-86
2022/03/21 01:51:41;;;;;;;25.13;16.98;;;;;;;;;;5015795;28;20517;-87
2022/03/21 01:56:51;;;;;;;31.70;18.63;;;;;;;;;;5012368;28;20041;-86
2022/03/21 01:59:19;;;;;;;26.98;17.73;;;;;;;;;;5012099;28;20046;-87
2022/03/21 02:01:45;;;;;;;23.13;16.13;;;;;;;;;;5012430;28;20481;-86
2022/03/21 02:04:11;;;;;;;26.25;16.92;;;;;;;;;;5011959;28;20084;-86
2022/03/21 02:06:37;;;;;;;25.40;16.75;;;;;;;;;;5012609;28;20033;-86
2022/03/21 02:09:04;;;;;;;25.77;16.92;;;;;;;;;;5012177;28;20042;-86
2022/03/21 02:11:30;;;;;;;24.60;16.73;;;;;;;;;;5012257;28;20042;-87
2022/03/21 02:13:58;;;;;;;26.17;17.67;;;;;;;;;;5011616;28;20046;-87
2022/03/21 02:16:25;;;;;;;25.40;17.40;;;;;;;;;;5011942;28;20517;-87
2022/03/21 02:18:51;;;;;;;25.67;17.67;;;;;;;;;;5011847;28;20044;-86
2022/03/21 02:21:24;;;;;;;28.10;18.10;;;;;;;;;;5011910;28;20556;-87
2022/03/21 02:23:57;;;;;;;24.52;16.38;;;;;;;;;;5011954;28;20071;-87
2022/03/21 02:26:24;;;;;;;24.15;16.50;;;;;;;;;;5011763;28;20081;-87
2022/03/21 02:28:51;;;;;;;25.67;16.85;;;;;;;;;;5011754;28;20049;-86
2022/03/21 02:31:17;;;;;;;24.80;15.80;;;;;;;;;;5012013;28;20053;-86
2022/03/21 02:33:44;;;;;;;24.77;16.58;;;;;;;;;;5011561;28;20083;-87
2022/03/21 02:36:12;;;;;;;25.27;16.77;;;;;;;;;;5011610;28;20513;-86
2022/03/21 02:38:38;;;;;;;25.40;16.20;;;;;;;;;;5011573;28;20053;-87
2022/03/21 02:41:04;;;;;;;27.55;16.88;;;;;;;;;;5011836;28;20127;-87
2022/03/21 02:43:30;;;;;;;24.08;16.27;;;;;;;;;;5011562;28;20049;-87
2022/03/21 02:46:06;;;;;;;25.50;17.05;;;;;;;;;;5011555;28;20045;-86
2022/03/21 02:48:32;;;;;;;25.27;16.73;;;;;;;;;;5011544;28;20060;-87
2022/03/21 02:51:02;;;;;;;25.05;15.90;;;;;;;;;;5011842;28;20046;-87
2022/03/21 02:53:30;;;;;;;25.00;16.60;;;;;;;;;;5011242;28;20177;-87
2022/03/21 02:55:57;;;;;;;30.08;18.77;;;;;;;;;;5011663;28;20128;-87
2022/03/21 02:58:23;;;;;;;25.75;15.60;;;;;;;;;;5011275;28;20064;-86
2022/03/21 03:00:49;;;;;;;28.35;17.85;;;;;;;;;;5011403;28;20444;-87
2022/03/21 03:03:15;;;;;;;26.75;17.67;;;;;;;;;;5024668;28;20033;-86
2022/03/21 03:05:41;;;;;;;27.60;18.30;;;;;;;;;;5011214;28;20099;-86
2022/03/21 03:08:07;;;;;;;26.08;17.88;;;;;;;;;;5027655;28;20037;-87
2022/03/21 03:10:33;;;;;;;25.98;16.95;;;;;;;;;;5027713;28;20121;-86
2022/03/21 03:12:59;;;;;;;28.13;19.00;;;;;;;;;;5011298;28;20040;-86
2022/03/21 03:15:25;;;;;;;27.70;18.02;;;;;;;;;;5027291;28;20077;-87
2022/03/21 03:17:51;;;;;;;26.25;18.05;;;;;;;;;;5010694;28;20046;-86
2022/03/21 03:20:18;;;;;;;27.00;17.80;;;;;;;;;;5027624;28;20068;-86
2022/03/21 03:22:44;;;;;;;26.10;17.67;;;;;;;;;;5010887;28;20046;-87
2022/03/21 03:25:10;;;;;;;32.33;18.80;;;;;;;;;;5026871;28;20057;-87
2022/03/21 03:27:37;;;;;;;32.65;22.20;;;;;;;;;;5013652;28;20520;-86
2022/03/21 03:30:03;;;;;;;29.13;20.30;;;;;;;;;;5031060;28;20038;-86
2022/03/21 03:32:29;;;;;;;30.55;20.48;;;;;;;;;;5031194;28;20038;-86
2022/03/21 03:34:55;;;;;;;32.28;20.85;;;;;;;;;;5014924;28;20042;-86
2022/03/21 03:37:21;;;;;;;28.52;20.10;;;;;;;;;;5014630;28;20070;-86
2022/03/21 03:39:47;;;;;;;29.80;19.55;;;;;;;;;;5031073;28;20409;-87
2022/03/21 03:42:14;;;;;;;30.05;19.58;;;;;;;;;;5014338;28;20229;-86
2022/03/21 03:44:40;;;;;;;30.52;20.25;;;;;;;;;;5014057;28;20166;-86
2022/03/21 03:47:07;;;;;;;29.77;21.02;;;;;;;;;;5013657;28;20069;-86
2022/03/21 03:49:33;;;;;;;28.63;19.52;;;;;;;;;;5013766;28;20044;-87
2022/03/21 03:51:59;;;;;;;27.08;19.05;;;;;;;;;;5014036;28;20049;-86
2022/03/21 03:54:25;;;;;;;29.40;20.30;;;;;;;;;;5014024;28;20042;-86
2022/03/21 03:56:51;;;;;;;32.67;21.88;;;;;;;;;;5014293;28;20116;-86
2022/03/21 03:59:17;;;;;;;33.38;21.70;;;;;;;;;;5014215;28;20548;-87
2022/03/21 04:01:43;;;;;;;38.80;22.30;;;;;;;;;;5013821;28;20045;-87
2022/03/21 04:04:09;;;;;;;30.83;20.77;;;;;;;;;;5014256;28;20048;-86
2022/03/21 04:06:35;;;;;;;32.33;22.25;;;;;;;;;;5013626;28;20049;-86
2022/03/21 04:09:01;;;;;;;30.67;19.88;;;;;;;;;;5013311;28;20092;-87
2022/03/21 04:11:27;;;;;;;30.95;21.08;;;;;;;;;;5012953;28;20069;-87
2022/03/21 04:13:53;;;;;;;27.33;17.77;;;;;;;;;;5013226;28;20103;-87
2022/03/21 04:16:19;;;;;;;31.15;18.58;;;;;;;;;;5013368;28;20041;-87
2022/03/21 04:18:45;;;;;;;30.08;20.17;;;;;;;;;;5013487;28;20045;-87
2022/03/21 04:21:12;;;;;;;33.92;20.95;;;;;;;;;;5013573;28;20048;-86
2022/03/21 04:23:38;;;;;;;28.08;19.08;;;;;;;;;;5013556;28;20053;-86
2022/03/21 04:26:04;;;;;;;33.40;20.67;;;;;;;;;;5013619;28;20058;-87
2022/03/21 04:28:31;;;;;;;28.17;18.63;;;;;;;;;;5013562;28;20056;-86
2022/03/21 04:30:57;;;;;;;30.60;20.33;;;;;;;;;;5013158;28;20084;-87
2022/03/21 04:33:23;;;;;;;32.15;21.02;;;;;;;;;;5013315;28;20493;-87
2022/03/21 04:35:49;;;;;;;29.42;19.25;;;;;;;;;;5013082;28;20037;-87
2022/03/21 04:38:16;;;;;;;31.15;19.40;;;;;;;;;;5013423;28;20037;-87
2022/03/21 04:40:45;;;;;;;30.73;20.13;;;;;;;;;;5013394;28;20498;-86
2022/03/21 04:43:13;;;;;;;32.97;20.27;;;;;;;;;;5013349;28;20069;-86
2022/03/21 04:45:39;;;;;;;29.92;19.90;;;;;;;;;;5013117;28;20088;-87
2022/03/21 04:48:05;;;;;;;29.05;20.00;;;;;;;;;;5012713;28;20096;-87
2022/03/21 04:50:32;;;;;;;30.88;20.38;;;;;;;;;;5012814;28;20037;-87
2022/03/21 04:52:58;;;;;;;30.50;20.42;;;;;;;;;;5012978;28;20434;-86
2022/03/21 04:55:24;;;;;;;27.73;19.25;;;;;;;;;;5013197;28;20516;-86
2022/03/21 04:57:50;;;;;;;28.38;18.35;;;;;;;;;;5012905;28;20052;-87
2022/03/21 05:00:16;;;;;;;35.45;20.63;;;;;;;;;;5012819;28;20038;-87
2022/03/21 05:02:42;;;;;;;28.25;19.13;;;;;;;;;;5012543;28;20034;-87
2022/03/21 05:05:09;;;;;;;29.98;20.13;;;;;;;;;;5015779;28;20049;-87
2022/03/21 05:07:41;;;;;;;34.17;20.48;;;;;;;;;;5031372;28;20095;-87
2022/03/21 05:10:08;;;;;;;31.75;20.92;;;;;;;;;;5030899;28;20041;-87
2022/03/21 05:12:35;;;;;;;32.25;21.42;;;;;;;;;;5014865;28;20042;-86
2022/03/21 05:15:01;;;;;;;31.13;20.33;;;;;;;;;;5015027;28;20068;-86
2022/03/21 05:17:30;;;;;;;30.00;19.75;;;;;;;;;;5014648;28;20424;-87
2022/03/21 05:19:57;;;;;;;28.08;18.65;;;;;;;;;;5031707;28;20045;-86
2022/03/21 05:22:23;;;;;;;29.73;19.38;;;;;;;;;;5015893;28;20045;-87
2022/03/21 05:35:55;;;;;;;32.00;20.50;;;;;;;;;;5030565;28;20048;-87
2022/03/21 05:38:25;;;;;;;29.50;19.52;;;;;;;;;;5030824;28;20550;-86
2022/03/21 05:40:52;;;;;;;34.92;22.15;;;;;;;;;;5027319;28;20044;-86
2022/03/21 05:43:18;;;;;;;37.30;21.65;;;;;;;;;;5011242;28;20128;-87
2022/03/21 05:45:44;;;;;;;32.28;20.05;;;;;;;;;;4995113;28;20468;-87
2022/03/21 05:50:55;;;;;;;28.48;17.70;;;;;;;;;;5012193;28;20046;-87
2022/03/21 05:53:21;;;;;;;33.33;20.20;;;;;;;;;;4995459;28;20071;-87
2022/03/21 05:55:47;;;;;;;31.88;20.85;;;;;;;;;;5011830;28;20058;-87
2022/03/21 05:58:13;;;;;;;35.95;20.17;;;;;;;;;;5011630;28;20045;-87
2022/03/21 06:00:40;;;;;;;34.83;22.35;;;;;;;;;;4994943;28;20096;-87
2022/03/21 06:03:08;;;;;;;29.42;19.88;;;;;;;;;;4994590;28;20042;-87
2022/03/21 06:05:35;;;;;;;29.75;18.30;;;;;;;;;;5010982;28;20096;-87
2022/03/21 06:08:01;;;;;;;31.90;18.42;;;;;;;;;;5010667;28;20041;-87
2022/03/21 06:10:27;;;;;;;33.03;20.00;;;;;;;;;;5010628;28;20048;-87
2022/03/21 06:12:55;;;;;;;36.15;21.75;;;;;;;;;;4994160;28;20088;-87
2022/03/21 06:15:21;;;;;;;34.60;19.90;;;;;;;;;;4994020;28;20037;-87
2022/03/21 06:17:47;;;;;;;30.35;20.05;;;;;;;;;;4993538;28;20076;-87
2022/03/21 06:20:14;;;;;;;32.85;21.40;;;;;;;;;;4996787;28;20065;-87
2022/03/21 06:22:41;;;;;;;30.92;21.15;;;;;;;;;;5032308;28;20037;-86
2022/03/21 06:25:08;;;;;;;36.83;22.42;;;;;;;;;;5032157;28;20054;-87
2022/03/21 06:27:35;;;;;;;31.88;21.52;;;;;;;;;;5032946;28;20045;-87
2022/03/21 06:30:01;;;;;;;33.75;21.33;;;;;;;;;;5033921;28;20120;-87
2022/03/21 06:32:27;;;;;;;34.60;22.55;;;;;;;;;;5031035;28;20041;-87
2022/03/21 06:34:53;;;;;;;34.28;21.02;;;;;;;;;;5025981;28;20095;-87
2022/03/21 06:37:20;;;;;;;32.08;21.40;;;;;;;;;;5025146;28;20042;-87
2022/03/21 06:39:46;;;;;;;38.50;23.63;;;;;;;;;;5014985;28;20125;-86
2022/03/21 06:42:14;;;;;;;36.10;24.17;;;;;;;;;;5026168;28;20041;-87
2022/03/21 06:44:40;;;;;;;33.58;20.42;;;;;;;;;;5028690;28;20472;-86
2022/03/21 06:47:06;;;;;;;38.13;22.52;;;;;;;;;;5011700;28;20479;-86
2022/03/21 06:49:32;;;;;;;35.67;22.75;;;;;;;;;;5008496;28;20038;-86
2022/03/21 06:52:02;;;;;;;37.17;23.00;;;;;;;;;;5031862;28;20140;-86
2022/03/21 06:54:28;;;;;;;37.38;22.23;;;;;;;;;;5027191;28;20291;-86
2022/03/21 06:56:54;;;;;;;36.25;22.00;;;;;;;;;;5013330;28;20037;-86
2022/03/21 06:59:20;;;;;;;35.80;22.88;;;;;;;;;;5024632;28;20752;-87
2022/03/21 07:01:46;;;;;;;37.30;23.00;;;;;;;;;;5037949;28;20056;-87
2022/03/21 07:04:13;;;;;;;37.38;24.73;;;;;;;;;;5036795;28;20037;-87
2022/03/21 07:06:39;;;;;;;38.58;23.80;;;;;;;;;;5038361;28;20045;-87
2022/03/21 07:09:05;;;;;;;36.53;22.55;;;;;;;;;;5021430;28;20087;-87
2022/03/21 07:11:32;;;;;;;41.15;24.92;;;;;;;;;;5023477;28;20044;-86
2022/03/21 07:13:58;;;;;;;41.17;26.85;;;;;;;;;;5027766;28;20064;-86
2022/03/21 07:16:24;;;;;;;38.15;24.90;;;;;;;;;;5022658;28;20068;-86
2022/03/21 07:18:50;;;;;;;37.13;23.23;;;;;;;;;;5037210;28;20045;-86
2022/03/21 07:21:16;;;;;;;39.53;23.77;;;;;;;;;;5020202;28;20075;-86
2022/03/21 07:23:43;;;;;;;41.92;26.38;;;;;;;;;;5022374;28;20107;-86
2022/03/21 07:26:11;;;;;;;35.60;22.58;;;;;;;;;;5040235;28;20420;-86
2022/03/21 07:28:37;;;;;;;40.75;25.83;;;;;;;;;;5022512;28;20037;-87
2022/03/21 07:31:03;;;;;;;38.20;23.42;;;;;;;;;;5023446;28;20124;-86
2022/03/21 07:33:29;;;;;;;40.33;25.58;;;;;;;;;;5022288;28;20068;-86
2022/03/21 07:35:55;;;;;;;34.38;21.98;;;;;;;;;;5021402;28;20119;-86
2022/03/21 07:38:22;;;;;;;38.78;22.42;;;;;;;;;;5036504;28;20053;-86
2022/03/21 07:40:49;;;;;;;41.33;24.50;;;;;;;;;;5019210;28;20048;-87
2022/03/21 07:43:15;;;;;;;37.08;24.45;;;;;;;;;;5019280;28;20432;-87
2022/03/21 07:48:27;;;;;;;33.92;22.65;;;;;;;;;;5035103;28;20061;-86
2022/03/21 07:50:54;;;;;;;34.25;22.25;;;;;;;;;;5035228;28;20052;-87
2022/03/21 07:53:20;;;;;;;34.53;22.25;;;;;;;;;;5017976;28;20136;-87
2022/03/21 07:55:46;;;;;;;35.53;23.38;;;;;;;;;;5018216;28;20076;-87
2022/03/21 07:58:12;;;;;;;33.53;21.23;;;;;;;;;;5018078;28;20037;-87
2022/03/21 08:00:41;;;;;;;30.83;20.48;;;;;;;;;;5032443;28;20049;-87
2022/03/21 08:03:09;;;;;;;30.58;20.52;;;;;;;;;;5030309;28;20041;-86
2022/03/21 08:05:35;;;;;;;31.15;21.30;;;;;;;;;;5030294;28;20263;-87
2022/03/21 08:08:01;;;;;;;36.35;22.80;;;;;;;;;;5030465;28;20041;-87
2022/03/21 08:10:29;;;;;;;31.63;21.05;;;;;;;;;;5015457;28;20440;-87
2022/03/21 08:12:56;;;;;;;33.30;20.98;;;;;;;;;;5031214;28;20091;-86
2022/03/21 08:15:22;;;;;;;31.80;20.58;;;;;;;;;;5032144;28;20038;-86
2022/03/21 08:17:52;;;;;;;30.33;19.60;;;;;;;;;;5033124;28;20136;-86
2022/03/21 08:20:19;;;;;;;32.90;20.30;;;;;;;;;;5034254;28;20505;-86
2022/03/21 08:22:47;;;;;;;30.75;19.77;;;;;;;;;;5033996;28;20131;-86
2022/03/21 08:25:15;;;;;;;34.08;20.50;;;;;;;;;;5033877;28;20065;-86
2022/03/21 08:27:41;;;;;;;30.60;20.20;;;;;;;;;;5034097;28;20054;-86
2022/03/21 08:30:08;;;;;;;27.95;19.48;;;;;;;;;;5033811;28;20401;-86
2022/03/21 08:32:34;;;;;;;27.65;18.98;;;;;;;;;;5033115;28;20488;-87
2022/03/21 08:35:00;;;;;;;27.95;19.52;;;;;;;;;;5034314;28;20128;-87
2022/03/21 08:37:26;;;;;;;29.55;19.85;;;;;;;;;;5032339;28;20067;-87
2022/03/21 08:39:51;;;;;;;28.40;19.00;;;;;;;;;;5049808;28;20037;-86
2022/03/21 08:42:17;;;;;;;30.25;19.65;;;;;;;;;;5033152;28;20041;-86
2022/03/21 08:44:44;;;;;;;31.30;19.70;;;;;;;;;;5050185;28;20073;-87
2022/03/21 08:47:10;;;;;;;30.17;20.13;;;;;;;;;;5049867;28;20041;-86
2022/03/21 08:49:37;;;;;;;32.88;20.58;;;;;;;;;;5032905;28;20455;-87
2022/03/21 08:52:06;;;;;;;30.70;20.20;;;;;;;;;;5048827;28;20094;-87
2022/03/21 08:54:32;;;;;;;28.77;18.98;;;;;;;;;;5031280;28;20041;-87
2022/03/21 08:56:58;;;;;;;30.77;20.75;;;;;;;;;;5048575;28;20166;-87
2022/03/21 08:59:27;;;;;;;33.60;20.17;;;;;;;;;;5028381;28;20045;-85
2022/03/21 09:01:53;;;;;;;31.15;20.05;;;;;;;;;;5031467;28;20042;-86
2022/03/21 09:04:19;;;;;;;31.23;19.75;;;;;;;;;;5033498;28;20421;-86
2022/03/21 09:06:45;;;;;;;27.90;19.25;;;;;;;;;;5031254;28;20046;-87
2022/03/21 09:09:11;;;;;;;26.90;18.50;;;;;;;;;;5030839;28;20045;-87
2022/03/21 09:11:40;;;;;;;31.48;19.98;;;;;;;;;;5026221;28;20476;-87
2022/03/21 09:14:08;;;;;;;27.67;18.77;;;;;;;;;;5037050;28;20037;-87
2022/03/21 09:16:34;;;;;;;30.30;19.83;;;;;;;;;;5031021;28;20523;-87
2022/03/21 09:19:00;;;;;;;29.67;20.23;;;;;;;;;;5026660;28;20046;-87
2022/03/21 09:21:27;;;;;;;25.23;18.15;;;;;;;;;;5042333;28;20486;-88
2022/03/21 09:23:53;;;;;;;31.23;18.63;;;;;;;;;;5015565;28;20103;-88
2022/03/21 09:26:21;;;;;;;29.40;20.10;;;;;;;;;;5019666;28;20054;-87
2022/03/21 09:28:48;;;;;;;28.20;18.85;;;;;;;;;;5009527;28;20053;-89
2022/03/21 09:31:14;;;;;;;25.27;17.52;;;;;;;;;;5009492;28;20501;-87
2022/03/21 09:33:41;;;;;;;26.92;19.73;;;;;;;;;;5002794;28;20481;-88
2022/03/21 09:36:07;;;;;;;25.88;17.77;;;;;;;;;;5025377;28;20041;-89
2022/03/21 09:38:34;;;;;;;30.77;18.70;;;;;;;;;;5022023;28;20553;-88
2022/03/21 09:41:01;;;;;;;29.48;18.27;;;;;;;;;;5008731;28;20046;-88
2022/03/21 09:43:29;;;;;;;26.45;18.30;;;;;;;;;;4991904;28;20116;-87
2022/03/21 09:45:57;;;;;;;24.40;18.77;;;;;;;;;;4991929;28;20449;-86
2022/03/21 09:48:23;;;;;;;25.52;18.50;;;;;;;;;;5025918;28;20505;-86
2022/03/21 09:50:51;;;;;;;29.05;18.80;;;;;;;;;;5010426;28;20067;-86
2022/03/21 09:53:17;;;;;;;27.98;19.83;;;;;;;;;;5015220;28;20046;-86
2022/03/21 09:55:44;;;;;;;24.85;18.02;;;;;;;;;;5025338;28;20072;-86
2022/03/21 09:58:10;;;;;;;30.40;20.88;;;;;;;;;;5010776;28;20072;-86
2022/03/21 10:00:38;;;;;;;29.65;21.27;;;;;;;;;;5026107;28;20041;-86
2022/03/21 10:03:04;;;;;;;29.27;20.63;;;;;;;;;;5014396;28;20045;-86
2022/03/21 10:05:33;;;;;;;28.40;19.83;;;;;;;;;;5026881;28;20045;-86
2022/03/21 10:08:12;;;;;;;29.40;19.88;;;;;;;;;;5024915;28;20068;-86
2022/03/21 10:10:39;;;;;;;24.88;18.30;;;;;;;;;;5028758;28;20049;-86
2022/03/21 10:13:09;;;;;;;25.70;19.50;;;;;;;;;;5028373;28;20116;-87
2022/03/21 10:15:36;;;;;;;27.58;20.65;;;;;;;;;;5025310;28;20112;-85
2022/03/21 10:18:06;;;;;;;25.75;19.67;;;;;;;;;;5009994;28;20052;-86
2022/03/21 10:20:33;;;;;;;26.98;20.25;;;;;;;;;;5012464;28;20161;-85
2022/03/21 10:23:14;;;;;;;26.02;20.17;;;;;;;;;;5015291;28;20037;-86
2022/03/21 10:25:40;;;;;;;23.63;19.27;;;;;;;;;;5014955;28;20583;-87
2022/03/21 10:28:06;;;;;;;27.48;20.08;;;;;;;;;;5003121;28;20128;-87
2022/03/21 10:30:32;;;;;;;25.85;19.50;;;;;;;;;;5013354;28;20136;-86
2022/03/21 10:32:59;;;;;;;27.10;19.48;;;;;;;;;;5008092;28;20045;-86
2022/03/21 10:35:32;;;;;;;23.63;17.90;;;;;;;;;;5030903;28;20475;-87
2022/03/21 10:38:02;;;;;;;25.55;20.75;;;;;;;;;;5031976;28;20037;-87
2022/03/21 10:40:36;;;;;;;27.13;19.88;;;;;;;;;;5031193;28;20037;-87
2022/03/21 10:43:05;;;;;;;27.10;21.00;;;;;;;;;;5014659;28;20037;-87
2022/03/21 10:45:37;;;;;;;27.35;19.88;;;;;;;;;;5026175;28;20480;-88
2022/03/21 10:48:05;;;;;;;26.67;20.27;;;;;;;;;;5013697;28;20046;-87
2022/03/21 10:50:32;;;;;;;24.75;19.23;;;;;;;;;;5018174;28;20065;-87
2022/03/21 10:53:18;;;;;;;23.98;18.63;;;;;;;;;;5025225;28;20040;-87
2022/03/21 10:55:46;;;;;;;24.00;18.35;;;;;;;;;;5030584;28;20072;-86
2022/03/21 10:58:13;;;;;;;24.23;18.50;;;;;;;;;;5015684;28;20447;-86
2022/03/21 11:00:39;;;;;;;22.58;18.38;;;;;;;;;;5011568;28;20080;-85
2022/03/21 11:03:16;;;;;;;24.55;17.98;;;;;;;;;;5037666;28;20120;-86
2022/03/21 11:05:49;;;;;;;23.33;17.52;;;;;;;;;;5031135;28;20033;-86
2022/03/21 11:08:19;;;;;;;23.92;18.90;;;;;;;;;;5034877;28;20045;-85
2022/03/21 11:10:48;;;;;;;23.98;18.98;;;;;;;;;;5016307;28;20033;-87
2022/03/21 11:13:14;;;;;;;25.15;18.83;;;;;;;;;;5031654;28;20436;-87
2022/03/21 11:15:41;;;;;;;24.25;18.92;;;;;;;;;;5034978;28;20037;-88
2022/03/21 11:18:08;;;;;;;23.40;18.95;;;;;;;;;;5037795;28;20041;-87
2022/03/21 11:20:34;;;;;;;24.20;18.50;;;;;;;;;;5037678;28;20140;-87
2022/03/21 11:23:01;;;;;;;23.98;19.17;;;;;;;;;;5038119;28;20090;-88
2022/03/21 11:25:34;;;;;;;22.80;17.55;;;;;;;;;;5039162;28;20065;-89
2022/03/21 11:28:06;;;;;;;21.05;17.70;;;;;;;;;;5028533;28;20045;-89
2022/03/21 11:30:54;;;;;;;23.48;17.08;;;;;;;;;;5028902;28;20485;-89
2022/03/21 11:33:46;;;;;;;22.73;16.98;;;;;;;;;;5043625;28;20048;-91
2022/03/21 11:36:13;;;;;;;23.33;18.23;;;;;;;;;;5034378;28;20049;-90
2022/03/21 11:38:45;;;;;;;22.80;18.33;;;;;;;;;;5032797;28;20498;-88
2022/03/21 11:41:18;;;;;;;22.95;17.85;;;;;;;;;;5018192;28;20048;-89
2022/03/21 11:44:16;;;;;;;20.35;17.33;;;;;;;;;;5019493;28;20394;-90
2022/03/21 11:46:45;;;;;;;22.88;17.25;;;;;;;;;;5001848;28;20068;-92
2022/03/21 11:49:21;;;;;;;24.38;18.27;;;;;;;;;;5021150;28;20052;-91
2022/03/21 11:51:57;;;;;;;23.48;18.73;;;;;;;;;;5015051;28;20037;-88
2022/03/21 11:54:30;;;;;;;22.73;17.63;;;;;;;;;;5028491;28;20036;-91
2022/03/21 11:57:01;;;;;;;23.23;18.17;;;;;;;;;;5036182;28;20500;-89
2022/03/21 11:59:33;;;;;;;22.38;17.95;;;;;;;;;;5053121;28;20049;-88
2022/03/21 12:02:00;;;;;;;23.42;18.23;;;;;;;;;;5021442;28;20053;-89
2022/03/21 12:04:29;;;;;;;23.27;19.20;;;;;;;;;;5008281;28;20095;-88
2022/03/21 12:07:00;;;;;;;24.23;19.45;;;;;;;;;;5032617;28;20044;-88
2022/03/21 12:09:39;;;;;;;20.98;17.83;;;;;;;;;;5033357;28;20396;-86
2022/03/21 12:12:06;;;;;;;22.83;19.40;;;;;;;;;;5032323;28;20056;-89
2022/03/21 12:14:43;;;;;;;24.25;18.27;;;;;;;;;;5032156;28;20065;-88
2022/03/21 12:17:12;;;;;;;24.85;18.98;;;;;;;;;;5023858;28;20037;-88
2022/03/21 12:19:45;;;;;;;22.95;18.58;;;;;;;;;;5040594;28;20095;-88
2022/03/21 12:22:43;;;;;;;23.33;18.25;;;;;;;;;;5024723;28;20051;-87
2022/03/21 12:25:20;;;;;;;24.38;18.58;;;;;;;;;;5025067;28;20060;-88
2022/03/21 12:27:55;;;;;;;23.20;18.85;;;;;;;;;;5013209;28;20520;-88
2022/03/21 12:30:27;;;;;;;26.88;18.92;;;;;;;;;;5032064;28;20040;-88
2022/03/21 12:32:52;;;;;;;22.52;17.45;;;;;;;;;;5021528;28;20073;-87
2022/03/21 12:35:42;;;;;;;24.95;18.40;;;;;;;;;;5012185;28;20099;-88
2022/03/21 12:38:09;;;;;;;25.40;18.95;;;;;;;;;;5012170;28;20038;-89
2022/03/21 12:40:36;;;;;;;24.25;19.08;;;;;;;;;;5022211;28;20038;-88
2022/03/21 12:43:03;;;;;;;26.10;17.08;;;;;;;;;;5031952;28;20038;-88
2022/03/21 12:45:29;;;;;;;22.67;17.33;;;;;;;;;;5016449;28;20081;-89
2022/03/21 12:48:07;;;;;;;21.92;17.38;;;;;;;;;;5011431;28;20095;-89
2022/03/21 12:50:34;;;;;;;22.00;18.17;;;;;;;;;;5012426;28;20064;-88
2022/03/21 12:53:01;;;;;;;23.27;18.88;;;;;;;;;;5013155;28;20038;-90
2022/03/21 12:55:27;;;;;;;21.55;18.13;;;;;;;;;;5015142;28;20108;-89
2022/03/21 12:58:01;;;;;;;21.77;17.02;;;;;;;;;;5012332;28;20049;-90
2022/03/21 13:00:28;;;;;;;21.10;16.33;;;;;;;;;;5012821;28;20038;-90
2022/03/21 13:02:56;;;;;;;20.33;17.02;;;;;;;;;;5012516;28;20124;-87
2022/03/21 13:10:54;;;;;;;22.42;17.73;;;;;;;;;;5056467;28;20109;-89
2022/03/21 13:13:21;;;;;;;23.95;17.88;;;;;;;;;;5042058;28;20041;-89
2022/03/21 13:15:48;;;;;;;22.30;18.33;;;;;;;;;;5051215;28;20181;-89
2022/03/21 13:18:14;;;;;;;23.77;17.20;;;;;;;;;;5050323;28;20421;-89
2022/03/21 13:20:40;;;;;;;23.40;17.88;;;;;;;;;;5035415;28;20041;-89
2022/03/21 13:23:07;;;;;;;23.77;17.80;;;;;;;;;;5036226;28;20059;-89
2022/03/21 13:25:34;;;;;;;20.98;17.27;;;;;;;;;;5035781;28;20124;-88
2022/03/21 13:28:08;;;;;;;22.35;17.70;;;;;;;;;;5032668;28;20489;-88
2022/03/21 13:30:34;;;;;;;22.92;18.55;;;;;;;;;;5016853;28;20413;-89
2022/03/21 13:33:00;;;;;;;22.25;18.35;;;;;;;;;;5016049;28;20041;-90
2022/03/21 13:35:26;;;;;;;26.58;19.80;;;;;;;;;;5018213;28;20448;-89
2022/03/21 13:37:59;;;;;;;23.35;17.58;;;;;;;;;;5018653;28;20045;-89
2022/03/21 13:40:27;;;;;;;22.42;17.55;;;;;;;;;;5016404;28;20099;-89
2022/03/21 13:42:54;;;;;;;24.60;18.13;;;;;;;;;;5015963;28;20041;-88
2022/03/21 13:45:21;;;;;;;20.88;16.52;;;;;;;;;;5017158;28;20041;-89
2022/03/21 13:47:51;;;;;;;22.13;16.63;;;;;;;;;;5016609;28;20041;-90
2022/03/21 13:50:17;;;;;;;20.33;14.68;;;;;;;;;;5015965;28;20038;-89
2022/03/21 13:52:46;;;;;;;22.85;16.35;;;;;;;;;;5016824;28;20500;-89
2022/03/21 13:55:13;;;;;;;21.30;16.00;;;;;;;;;;5033633;28;20382;-89
2022/03/21 13:57:48;;;;;;;24.10;16.52;;;;;;;;;;5015684;28;20132;-90
2022/03/21 14:00:15;;;;;;;25.30;17.20;;;;;;;;;;5016361;28;20045;-90
2022/03/21 14:02:42;;;;;;;22.77;16.15;;;;;;;;;;5015888;28;20045;-89
2022/03/21 14:05:17;;;;;;;22.65;16.05;;;;;;;;;;5016423;28;20049;-90
2022/03/21 14:07:44;;;;;;;23.70;16.52;;;;;;;;;;5015746;28;20034;-90
2022/03/21 14:10:17;;;;;;;23.58;17.25;;;;;;;;;;5015888;28;20091;-90
2022/03/21 14:12:48;;;;;;;24.42;16.55;;;;;;;;;;5015694;28;20136;-89
2022/03/21 14:15:14;;;;;;;23.13;16.67;;;;;;;;;;5015297;28;20034;-90
2022/03/21 14:17:40;;;;;;;20.70;16.13;;;;;;;;;;5015237;28;20362;-90
2022/03/21 14:20:07;;;;;;;24.70;17.20;;;;;;;;;;5015988;28;20049;-89
2022/03/21 14:22:33;;;;;;;24.02;16.85;;;;;;;;;;5012365;28;20416;-90
2022/03/21 14:24:59;;;;;;;22.10;16.52;;;;;;;;;;5028838;28;20066;-91
2022/03/21 14:27:26;;;;;;;22.50;16.45;;;;;;;;;;5013179;28;20521;-90
2022/03/21 14:29:52;;;;;;;22.10;15.90;;;;;;;;;;5014051;28;20042;-89
2022/03/21 14:32:18;;;;;;;23.58;16.45;;;;;;;;;;5029173;28;20044;-90
2022/03/21 14:34:44;;;;;;;21.83;15.98;;;;;;;;;;5012261;28;20034;-91
2022/03/21 14:37:10;;;;;;;23.08;17.33;;;;;;;;;;5013221;28;20070;-87
2022/03/21 14:39:37;;;;;;;24.55;17.05;;;;;;;;;;5012645;28;20046;-89
2022/03/21 14:42:03;;;;;;;22.00;17.45;;;;;;;;;;5031331;28;20041;-89
2022/03/21 14:44:29;;;;;;;24.50;17.67;;;;;;;;;;5030819;28;20045;-89